sensor_id;sensor_type;location;lat;lon;timestamp;P1;durP1;ratioP1;P2;durP2;ratioP2
10052;SDS011;52418;53.134;8.236;2022-08-19T00:02:01;0.90;;;0.90;;
10052;SDS011;52418;53.134;8.236;2022-08-19T00:04:28;0.80;;;0.80;;
10052;SDS011;52418;53.134;8.236;2022-08-19T00:06:54;0.80;;;0.80;;
10052;SDS011;52418;53.134;8.236;2022-08-19T00:09:20;0.90;;;0.90;;
10052;SDS011;52418;53.134;8.236;2022-08-19T00:11:51;0.80;;;0.80;;
10052;SDS011;52418;53.134;8.236;2022-08-19T00:14:17;0.80;;;0.80;;
10052;SDS011;52418;53.134;8.236;2022-08-19T00:16:43;0.80;;;0.80;;
10052;SDS011;52418;53.134;8.236;2022-08-19T00:19:08;0.80;;;0.80;;
10052;SDS011;52418;53.134;8.236;2022-08-19T00:21:34;0.90;;;0.90;;
10052;SDS011;52418;53.134;8.236;2022-08-19T00:24:03;0.80;;;0.80;;
10052;SDS011;52418;53.134;8.236;2022-08-19T00:26:28;0.80;;;0.80;;
10052;SDS011;52418;53.134;8.236;2022-08-19T00:28:53;0.80;;;0.80;;
10052;SDS011;52418;53.134;8.236;2022-08-19T00:31:19;0.90;;;0.90;;
10052;SDS011;52418;53.134;8.236;2022-08-19T00:33:44;0.80;;;0.80;;
10052;SDS011;52418;53.134;8.236;2022-08-19T00:36:09;0.90;;;0.90;;
10052;SDS011;52418;53.134;8.236;2022-08-19T00:38:35;0.90;;;0.90;;
10052;SDS011;52418;53.134;8.236;2022-08-19T00:41:01;0.90;;;0.90;;
10052;SDS011;52418;53.134;8.236;2022-08-19T00:43:26;0.90;;;0.90;;
10052;SDS011;52418;53.134;8.236;2022-08-19T00:45:52;0.90;;;0.90;;
10052;SDS011;52418;53.134;8.236;2022-08-19T00:48:18;0.80;;;0.80;;
10052;SDS011;52418;53.134;8.236;2022-08-19T00:50:43;0.80;;;0.80;;
10052;SDS011;52418;53.134;8.236;2022-08-19T00:53:11;0.90;;;0.90;;
10052;SDS011;52418;53.134;8.236;2022-08-19T00:55:39;0.90;;;0.90;;
10052;SDS011;52418;53.134;8.236;2022-08-19T00:58:11;0.90;;;0.90;;
10052;SDS011;52418;53.134;8.236;2022-08-19T01:00:39;0.80;;;0.80;;
10052;SDS011;52418;53.134;8.236;2022-08-19T01:03:06;0.80;;;0.80;;
10052;SDS011;52418;53.134;8.236;2022-08-19T01:05:31;0.80;;;0.80;;
10052;SDS011;52418;53.134;8.236;2022-08-19T01:07:58;0.82;;;0.82;;
10052;SDS011;52418;53.134;8.236;2022-08-19T01:10:25;0.90;;;0.90;;
10052;SDS011;52418;53.134;8.236;2022-08-19T01:12:52;0.90;;;0.90;;
10052;SDS011;52418;53.134;8.236;2022-08-19T01:15:19;0.90;;;0.90;;
10052;SDS011;52418;53.134;8.236;2022-08-19T01:17:44;0.80;;;0.80;;
10052;SDS011;52418;53.134;8.236;2022-08-19T01:20:11;0.90;;;0.90;;
10052;SDS011;52418;53.134;8.236;2022-08-19T01:22:44;0.90;;;0.90;;
10052;SDS011;52418;53.134;8.236;2022-08-19T01:25:10;0.90;;;0.90;;
10052;SDS011;52418;53.134;8.236;2022-08-19T01:27:39;0.90;;;0.90;;
10052;SDS011;52418;53.134;8.236;2022-08-19T01:30:05;0.90;;;0.90;;
10052;SDS011;52418;53.134;8.236;2022-08-19T01:32:30;1.00;;;1.00;;
10052;SDS011;52418;53.134;8.236;2022-08-19T01:34:56;0.90;;;0.90;;
10052;SDS011;52418;53.134;8.236;2022-08-19T01:37:21;0.90;;;0.90;;
10052;SDS011;52418;53.134;8.236;2022-08-19T01:39:46;0.90;;;0.90;;
10052;SDS011;52418;53.134;8.236;2022-08-19T01:42:11;0.90;;;0.90;;
10052;SDS011;52418;53.134;8.236;2022-08-19T01:44:38;0.80;;;0.80;;
10052;SDS011;52418;53.134;8.236;2022-08-19T01:47:04;0.80;;;0.80;;
10052;SDS011;52418;53.134;8.236;2022-08-19T01:49:29;0.70;;;0.70;;
10052;SDS011;52418;53.134;8.236;2022-08-19T01:51:55;0.90;;;0.90;;
10052;SDS011;52418;53.134;8.236;2022-08-19T01:54:21;0.80;;;0.80;;
10052;SDS011;52418;53.134;8.236;2022-08-19T01:56:46;0.80;;;0.80;;
10052;SDS011;52418;53.134;8.236;2022-08-19T01:59:14;0.85;;;0.85;;
10052;SDS011;52418;53.134;8.236;2022-08-19T02:01:39;0.90;;;0.90;;
10052;SDS011;52418;53.134;8.236;2022-08-19T02:04:05;0.90;;;0.90;;
10052;SDS011;52418;53.134;8.236;2022-08-19T02:06:30;0.80;;;0.80;;
10052;SDS011;52418;53.134;8.236;2022-08-19T02:08:56;0.90;;;0.90;;
10052;SDS011;52418;53.134;8.236;2022-08-19T02:11:23;0.80;;;0.80;;
10052;SDS011;52418;53.134;8.236;2022-08-19T02:13:51;0.90;;;0.90;;
10052;SDS011;52418;53.134;8.236;2022-08-19T02:16:17;0.80;;;0.80;;
10052;SDS011;52418;53.134;8.236;2022-08-19T02:18:42;0.80;;;0.80;;
10052;SDS011;52418;53.134;8.236;2022-08-19T02:21:07;0.90;;;0.90;;
10052;SDS011;52418;53.134;8.236;2022-08-19T02:23:32;0.80;;;0.80;;
10052;SDS011;52418;53.134;8.236;2022-08-19T02:25:57;0.80;;;0.80;;
10052;SDS011;52418;53.134;8.236;2022-08-19T02:28:23;0.90;;;0.90;;
10052;SDS011;52418;53.134;8.236;2022-08-19T02:30:48;0.90;;;0.90;;
10052;SDS011;52418;53.134;8.236;2022-08-19T02:33:13;0.80;;;0.80;;
10052;SDS011;52418;53.134;8.236;2022-08-19T02:35:45;0.80;;;0.80;;
10052;SDS011;52418;53.134;8.236;2022-08-19T02:38:10;0.80;;;0.80;;
10052;SDS011;52418;53.134;8.236;2022-08-19T02:41:02;0.90;;;0.90;;
10052;SDS011;52418;53.134;8.236;2022-08-19T02:43:28;0.90;;;0.90;;
10052;SDS011;52418;53.134;8.236;2022-08-19T02:45:54;0.90;;;0.90;;
10052;SDS011;52418;53.134;8.236;2022-08-19T02:48:19;0.87;;;0.87;;
10052;SDS011;52418;53.134;8.236;2022-08-19T02:50:46;0.90;;;0.90;;
10052;SDS011;52418;53.134;8.236;2022-08-19T02:53:12;0.80;;;0.80;;
10052;SDS011;52418;53.134;8.236;2022-08-19T02:55:42;0.90;;;0.90;;
10052;SDS011;52418;53.134;8.236;2022-08-19T02:58:08;0.90;;;0.90;;
10052;SDS011;52418;53.134;8.236;2022-08-19T03:00:33;0.90;;;0.90;;
10052;SDS011;52418;53.134;8.236;2022-08-19T03:02:58;0.90;;;0.90;;
10052;SDS011;52418;53.134;8.236;2022-08-19T03:05:23;0.90;;;0.90;;
10052;SDS011;52418;53.134;8.236;2022-08-19T03:07:48;0.90;;;0.90;;
10052;SDS011;52418;53.134;8.236;2022-08-19T03:10:13;1.00;;;1.00;;
10052;SDS011;52418;53.134;8.236;2022-08-19T03:12:39;0.83;;;0.83;;
10052;SDS011;52418;53.134;8.236;2022-08-19T03:15:05;0.90;;;0.90;;
10052;SDS011;52418;53.134;8.236;2022-08-19T03:17:31;0.80;;;0.80;;
10052;SDS011;52418;53.134;8.236;2022-08-19T03:19:56;0.90;;;0.90;;
10052;SDS011;52418;53.134;8.236;2022-08-19T03:22:21;0.90;;;0.90;;
10052;SDS011;52418;53.134;8.236;2022-08-19T03:24:46;0.80;;;0.80;;
10052;SDS011;52418;53.134;8.236;2022-08-19T03:27:12;0.90;;;0.90;;
10052;SDS011;52418;53.134;8.236;2022-08-19T03:29:37;0.83;;;0.83;;
10052;SDS011;52418;53.134;8.236;2022-08-19T03:32:04;0.90;;;0.90;;
10052;SDS011;52418;53.134;8.236;2022-08-19T03:34:30;0.90;;;0.90;;
10052;SDS011;52418;53.134;8.236;2022-08-19T03:36:56;0.90;;;0.90;;
10052;SDS011;52418;53.134;8.236;2022-08-19T03:39:22;0.80;;;0.80;;
10052;SDS011;52418;53.134;8.236;2022-08-19T03:41:48;0.83;;;0.83;;
10052;SDS011;52418;53.134;8.236;2022-08-19T03:44:16;0.90;;;0.90;;
10052;SDS011;52418;53.134;8.236;2022-08-19T03:46:42;0.90;;;0.90;;
10052;SDS011;52418;53.134;8.236;2022-08-19T03:49:08;0.90;;;0.90;;
10052;SDS011;52418;53.134;8.236;2022-08-19T03:51:35;0.90;;;0.90;;
10052;SDS011;52418;53.134;8.236;2022-08-19T03:54:01;0.90;;;0.90;;
10052;SDS011;52418;53.134;8.236;2022-08-19T03:56:27;0.93;;;0.93;;
10052;SDS011;52418;53.134;8.236;2022-08-19T03:58:53;0.90;;;0.90;;
10052;SDS011;52418;53.134;8.236;2022-08-19T04:01:20;1.00;;;1.00;;
10052;SDS011;52418;53.134;8.236;2022-08-19T04:03:46;0.97;;;0.97;;
10052;SDS011;52418;53.134;8.236;2022-08-19T04:08:37;0.90;;;0.90;;
10052;SDS011;52418;53.134;8.236;2022-08-19T04:11:06;0.80;;;0.80;;
10052;SDS011;52418;53.134;8.236;2022-08-19T04:13:31;0.90;;;0.90;;
10052;SDS011;52418;53.134;8.236;2022-08-19T04:15:56;0.87;;;0.87;;
10052;SDS011;52418;53.134;8.236;2022-08-19T04:18:21;0.90;;;0.90;;
10052;SDS011;52418;53.134;8.236;2022-08-19T04:20:46;0.80;;;0.80;;
10052;SDS011;52418;53.134;8.236;2022-08-19T04:23:13;0.80;;;0.80;;
10052;SDS011;52418;53.134;8.236;2022-08-19T04:25:39;0.80;;;0.80;;
10052;SDS011;52418;53.134;8.236;2022-08-19T04:28:05;0.80;;;0.80;;
10052;SDS011;52418;53.134;8.236;2022-08-19T04:30:36;0.80;;;0.80;;
10052;SDS011;52418;53.134;8.236;2022-08-19T04:33:01;0.80;;;0.80;;
10052;SDS011;52418;53.134;8.236;2022-08-19T04:35:26;0.90;;;0.90;;
10052;SDS011;52418;53.134;8.236;2022-08-19T04:37:51;0.80;;;0.80;;
10052;SDS011;52418;53.134;8.236;2022-08-19T04:40:17;0.80;;;0.80;;
10052;SDS011;52418;53.134;8.236;2022-08-19T04:43:00;0.70;;;0.70;;
10052;SDS011;52418;53.134;8.236;2022-08-19T04:45:26;0.80;;;0.80;;
10052;SDS011;52418;53.134;8.236;2022-08-19T04:47:54;0.80;;;0.80;;
10052;SDS011;52418;53.134;8.236;2022-08-19T04:50:20;0.80;;;0.80;;
10052;SDS011;52418;53.134;8.236;2022-08-19T04:52:47;0.90;;;0.90;;
10052;SDS011;52418;53.134;8.236;2022-08-19T04:55:14;0.80;;;0.80;;
10052;SDS011;52418;53.134;8.236;2022-08-19T04:57:39;0.80;;;0.80;;
10052;SDS011;52418;53.134;8.236;2022-08-19T05:00:06;0.80;;;0.80;;
10052;SDS011;52418;53.134;8.236;2022-08-19T05:02:31;0.80;;;0.80;;
10052;SDS011;52418;53.134;8.236;2022-08-19T05:04:59;0.80;;;0.80;;
10052;SDS011;52418;53.134;8.236;2022-08-19T05:07:25;0.80;;;0.80;;
10052;SDS011;52418;53.134;8.236;2022-08-19T05:09:50;0.80;;;0.80;;
10052;SDS011;52418;53.134;8.236;2022-08-19T05:12:16;0.83;;;0.83;;
10052;SDS011;52418;53.134;8.236;2022-08-19T05:14:41;0.90;;;0.90;;
10052;SDS011;52418;53.134;8.236;2022-08-19T05:17:07;0.90;;;0.90;;
10052;SDS011;52418;53.134;8.236;2022-08-19T05:19:32;0.87;;;0.87;;
10052;SDS011;52418;53.134;8.236;2022-08-19T05:22:16;0.80;;;0.80;;
10052;SDS011;52418;53.134;8.236;2022-08-19T05:25:04;0.80;;;0.80;;
10052;SDS011;52418;53.134;8.236;2022-08-19T05:27:30;0.83;;;0.83;;
10052;SDS011;52418;53.134;8.236;2022-08-19T05:29:55;0.90;;;0.90;;
10052;SDS011;52418;53.134;8.236;2022-08-19T05:32:21;0.83;;;0.83;;
10052;SDS011;52418;53.134;8.236;2022-08-19T05:34:48;0.80;;;0.80;;
10052;SDS011;52418;53.134;8.236;2022-08-19T05:37:13;0.87;;;0.87;;
10052;SDS011;52418;53.134;8.236;2022-08-19T05:39:38;0.90;;;0.90;;
10052;SDS011;52418;53.134;8.236;2022-08-19T05:42:05;0.90;;;0.90;;
10052;SDS011;52418;53.134;8.236;2022-08-19T05:44:32;0.90;;;0.90;;
10052;SDS011;52418;53.134;8.236;2022-08-19T05:46:58;0.90;;;0.90;;
10052;SDS011;52418;53.134;8.236;2022-08-19T05:49:24;0.90;;;0.90;;
10052;SDS011;52418;53.134;8.236;2022-08-19T05:51:50;0.80;;;0.80;;
10052;SDS011;52418;53.134;8.236;2022-08-19T05:54:15;0.80;;;0.80;;
10052;SDS011;52418;53.134;8.236;2022-08-19T05:56:41;0.90;;;0.90;;
10052;SDS011;52418;53.134;8.236;2022-08-19T05:59:07;0.90;;;0.90;;
10052;SDS011;52418;53.134;8.236;2022-08-19T06:01:34;0.90;;;0.90;;
10052;SDS011;52418;53.134;8.236;2022-08-19T06:04:00;0.90;;;0.90;;
10052;SDS011;52418;53.134;8.236;2022-08-19T06:06:25;1.00;;;1.00;;
10052;SDS011;52418;53.134;8.236;2022-08-19T06:08:51;0.90;;;0.90;;
10052;SDS011;52418;53.134;8.236;2022-08-19T06:11:20;1.00;;;1.00;;
10052;SDS011;52418;53.134;8.236;2022-08-19T06:13:47;0.90;;;0.90;;
10052;SDS011;52418;53.134;8.236;2022-08-19T06:16:15;0.90;;;0.90;;
10052;SDS011;52418;53.134;8.236;2022-08-19T06:18:50;1.00;;;1.00;;
10052;SDS011;52418;53.134;8.236;2022-08-19T06:21:22;1.00;;;1.00;;
10052;SDS011;52418;53.134;8.236;2022-08-19T06:23:47;0.90;;;0.90;;
10052;SDS011;52418;53.134;8.236;2022-08-19T06:26:17;1.00;;;1.00;;
10052;SDS011;52418;53.134;8.236;2022-08-19T06:28:42;1.00;;;1.00;;
10052;SDS011;52418;53.134;8.236;2022-08-19T06:31:45;1.00;;;1.00;;
10052;SDS011;52418;53.134;8.236;2022-08-19T06:34:04;1.00;;;1.00;;
10052;SDS011;52418;53.134;8.236;2022-08-19T06:36:31;1.00;;;1.00;;
10052;SDS011;52418;53.134;8.236;2022-08-19T06:38:59;0.95;;;0.95;;
10052;SDS011;52418;53.134;8.236;2022-08-19T06:41:25;1.05;;;1.05;;
10052;SDS011;52418;53.134;8.236;2022-08-19T06:43:50;1.00;;;1.00;;
10052;SDS011;52418;53.134;8.236;2022-08-19T06:46:16;1.13;;;1.13;;
10052;SDS011;52418;53.134;8.236;2022-08-19T06:48:43;1.10;;;1.10;;
10052;SDS011;52418;53.134;8.236;2022-08-19T06:51:08;1.10;;;1.10;;
10052;SDS011;52418;53.134;8.236;2022-08-19T06:53:34;1.00;;;1.00;;
10052;SDS011;52418;53.134;8.236;2022-08-19T06:55:59;1.00;;;1.00;;
10052;SDS011;52418;53.134;8.236;2022-08-19T06:58:27;1.08;;;1.08;;
10052;SDS011;52418;53.134;8.236;2022-08-19T07:00:53;1.00;;;1.00;;
10052;SDS011;52418;53.134;8.236;2022-08-19T07:03:18;1.10;;;1.10;;
10052;SDS011;52418;53.134;8.236;2022-08-19T07:05:43;1.08;;;1.08;;
10052;SDS011;52418;53.134;8.236;2022-08-19T07:08:09;1.08;;;1.08;;
10052;SDS011;52418;53.134;8.236;2022-08-19T07:10:34;1.05;;;1.05;;
10052;SDS011;52418;53.134;8.236;2022-08-19T07:12:59;1.10;;;1.10;;
10052;SDS011;52418;53.134;8.236;2022-08-19T07:15:25;1.10;;;1.10;;
10052;SDS011;52418;53.134;8.236;2022-08-19T07:17:50;1.00;;;1.00;;
10052;SDS011;52418;53.134;8.236;2022-08-19T07:20:16;1.10;;;1.10;;
10052;SDS011;52418;53.134;8.236;2022-08-19T07:22:41;1.10;;;1.10;;
10052;SDS011;52418;53.134;8.236;2022-08-19T07:25:07;1.02;;;1.02;;
10052;SDS011;52418;53.134;8.236;2022-08-19T07:27:33;1.10;;;1.10;;
10052;SDS011;52418;53.134;8.236;2022-08-19T07:29:59;1.10;;;1.10;;
10052;SDS011;52418;53.134;8.236;2022-08-19T07:32:25;1.00;;;1.00;;
10052;SDS011;52418;53.134;8.236;2022-08-19T07:34:53;1.10;;;1.10;;
10052;SDS011;52418;53.134;8.236;2022-08-19T07:37:18;1.10;;;1.10;;
10052;SDS011;52418;53.134;8.236;2022-08-19T07:39:43;1.10;;;1.10;;
10052;SDS011;52418;53.134;8.236;2022-08-19T07:42:09;1.10;;;1.10;;
10052;SDS011;52418;53.134;8.236;2022-08-19T07:44:35;1.10;;;1.10;;
10052;SDS011;52418;53.134;8.236;2022-08-19T07:47:00;1.10;;;1.10;;
10052;SDS011;52418;53.134;8.236;2022-08-19T07:49:26;1.10;;;1.10;;
10052;SDS011;52418;53.134;8.236;2022-08-19T07:51:56;1.00;;;1.00;;
10052;SDS011;52418;53.134;8.236;2022-08-19T07:54:22;1.00;;;1.00;;
10052;SDS011;52418;53.134;8.236;2022-08-19T07:56:47;1.20;;;1.20;;
10052;SDS011;52418;53.134;8.236;2022-08-19T07:59:12;1.10;;;1.10;;
10052;SDS011;52418;53.134;8.236;2022-08-19T08:01:38;1.10;;;1.10;;
10052;SDS011;52418;53.134;8.236;2022-08-19T08:04:05;1.20;;;1.20;;
10052;SDS011;52418;53.134;8.236;2022-08-19T08:06:49;1.10;;;1.10;;
10052;SDS011;52418;53.134;8.236;2022-08-19T08:09:34;1.20;;;1.20;;
10052;SDS011;52418;53.134;8.236;2022-08-19T08:12:01;1.20;;;1.20;;
10052;SDS011;52418;53.134;8.236;2022-08-19T08:14:29;1.10;;;1.10;;
10052;SDS011;52418;53.134;8.236;2022-08-19T08:16:54;1.10;;;1.10;;
10052;SDS011;52418;53.134;8.236;2022-08-19T08:19:20;1.10;;;1.10;;
10052;SDS011;52418;53.134;8.236;2022-08-19T08:21:45;1.10;;;1.10;;
10052;SDS011;52418;53.134;8.236;2022-08-19T08:24:10;1.13;;;1.13;;
10052;SDS011;52418;53.134;8.236;2022-08-19T08:26:37;1.15;;;1.15;;
10052;SDS011;52418;53.134;8.236;2022-08-19T08:29:02;1.08;;;1.08;;
10052;SDS011;52418;53.134;8.236;2022-08-19T08:31:27;1.10;;;1.10;;
10052;SDS011;52418;53.134;8.236;2022-08-19T08:33:53;1.10;;;1.10;;
10052;SDS011;52418;53.134;8.236;2022-08-19T08:36:18;1.20;;;1.20;;
10052;SDS011;52418;53.134;8.236;2022-08-19T08:38:44;1.20;;;1.20;;
10052;SDS011;52418;53.134;8.236;2022-08-19T08:41:18;1.10;;;1.10;;
10052;SDS011;52418;53.134;8.236;2022-08-19T08:43:48;1.10;;;1.10;;
10052;SDS011;52418;53.134;8.236;2022-08-19T08:49:00;1.10;;;1.10;;
10052;SDS011;52418;53.134;8.236;2022-08-19T08:51:33;1.17;;;1.17;;
10052;SDS011;52418;53.134;8.236;2022-08-19T08:53:59;1.20;;;1.20;;
10052;SDS011;52418;53.134;8.236;2022-08-19T08:56:24;1.10;;;1.10;;
10052;SDS011;52418;53.134;8.236;2022-08-19T08:59:00;1.00;;;1.00;;
10052;SDS011;52418;53.134;8.236;2022-08-19T09:01:26;1.15;;;1.15;;
10052;SDS011;52418;53.134;8.236;2022-08-19T09:03:52;1.30;;;1.30;;
10052;SDS011;52418;53.134;8.236;2022-08-19T09:06:21;1.10;;;1.10;;
10052;SDS011;52418;53.134;8.236;2022-08-19T09:09:03;1.10;;;1.10;;
10052;SDS011;52418;53.134;8.236;2022-08-19T09:16:43;1.20;;;1.20;;
10052;SDS011;52418;53.134;8.236;2022-08-19T09:19:09;1.20;;;1.20;;
10052;SDS011;52418;53.134;8.236;2022-08-19T09:21:35;1.30;;;1.30;;
10052;SDS011;52418;53.134;8.236;2022-08-19T09:24:01;1.15;;;1.15;;
10052;SDS011;52418;53.134;8.236;2022-08-19T09:26:27;1.10;;;1.10;;
10052;SDS011;52418;53.134;8.236;2022-08-19T09:28:52;1.30;;;1.30;;
10052;SDS011;52418;53.134;8.236;2022-08-19T09:31:19;1.20;;;1.20;;
10052;SDS011;52418;53.134;8.236;2022-08-19T09:33:45;1.13;;;1.13;;
10052;SDS011;52418;53.134;8.236;2022-08-19T09:36:11;1.20;;;1.20;;
10052;SDS011;52418;53.134;8.236;2022-08-19T09:38:37;1.20;;;1.20;;
10052;SDS011;52418;53.134;8.236;2022-08-19T09:41:07;1.20;;;1.20;;
10052;SDS011;52418;53.134;8.236;2022-08-19T09:43:33;1.20;;;1.20;;
10052;SDS011;52418;53.134;8.236;2022-08-19T09:46:01;1.20;;;1.20;;
10052;SDS011;52418;53.134;8.236;2022-08-19T09:48:26;1.10;;;1.10;;
10052;SDS011;52418;53.134;8.236;2022-08-19T09:50:52;1.10;;;1.10;;
10052;SDS011;52418;53.134;8.236;2022-08-19T09:53:17;1.33;;;1.30;;
10052;SDS011;52418;53.134;8.236;2022-08-19T09:55:42;1.30;;;1.30;;
10052;SDS011;52418;53.134;8.236;2022-08-19T09:58:07;1.20;;;1.20;;
10052;SDS011;52418;53.134;8.236;2022-08-19T10:00:33;1.10;;;1.10;;
10052;SDS011;52418;53.134;8.236;2022-08-19T10:02:58;1.10;;;1.10;;
10052;SDS011;52418;53.134;8.236;2022-08-19T10:05:23;1.10;;;1.10;;
10052;SDS011;52418;53.134;8.236;2022-08-19T10:08:07;1.20;;;1.20;;
10052;SDS011;52418;53.134;8.236;2022-08-19T10:10:34;1.20;;;1.20;;
10052;SDS011;52418;53.134;8.236;2022-08-19T10:13:00;1.20;;;1.20;;
10052;SDS011;52418;53.134;8.236;2022-08-19T10:15:25;1.30;;;1.30;;
10052;SDS011;52418;53.134;8.236;2022-08-19T10:17:50;1.20;;;1.20;;
10052;SDS011;52418;53.134;8.236;2022-08-19T10:20:15;1.50;;;1.40;;
10052;SDS011;52418;53.134;8.236;2022-08-19T10:22:40;1.20;;;1.20;;
10052;SDS011;52418;53.134;8.236;2022-08-19T10:25:07;1.20;;;1.20;;
10052;SDS011;52418;53.134;8.236;2022-08-19T10:27:32;1.55;;;1.45;;
10052;SDS011;52418;53.134;8.236;2022-08-19T10:29:57;1.55;;;1.45;;
10052;SDS011;52418;53.134;8.236;2022-08-19T10:32:22;1.30;;;1.30;;
10052;SDS011;52418;53.134;8.236;2022-08-19T10:34:50;1.20;;;1.20;;
10052;SDS011;52418;53.134;8.236;2022-08-19T10:37:17;1.30;;;1.30;;
10052;SDS011;52418;53.134;8.236;2022-08-19T10:39:42;1.50;;;1.40;;
10052;SDS011;52418;53.134;8.236;2022-08-19T10:42:11;1.20;;;1.20;;
10052;SDS011;52418;53.134;8.236;2022-08-19T10:44:37;1.30;;;1.30;;
10052;SDS011;52418;53.134;8.236;2022-08-19T10:47:03;1.25;;;1.25;;
10052;SDS011;52418;53.134;8.236;2022-08-19T10:49:28;1.20;;;1.20;;
10052;SDS011;52418;53.134;8.236;2022-08-19T10:51:54;1.20;;;1.20;;
10052;SDS011;52418;53.134;8.236;2022-08-19T10:54:38;1.17;;;1.17;;
10052;SDS011;52418;53.134;8.236;2022-08-19T10:57:22;1.10;;;1.10;;
10052;SDS011;52418;53.134;8.236;2022-08-19T10:59:52;1.13;;;1.13;;
10052;SDS011;52418;53.134;8.236;2022-08-19T11:02:17;1.20;;;1.20;;
10052;SDS011;52418;53.134;8.236;2022-08-19T11:04:42;1.20;;;1.20;;
10052;SDS011;52418;53.134;8.236;2022-08-19T11:07:07;1.20;;;1.20;;
10052;SDS011;52418;53.134;8.236;2022-08-19T11:09:36;1.20;;;1.20;;
10052;SDS011;52418;53.134;8.236;2022-08-19T11:12:02;1.10;;;1.10;;
10052;SDS011;52418;53.134;8.236;2022-08-19T11:14:28;1.20;;;1.20;;
10052;SDS011;52418;53.134;8.236;2022-08-19T11:16:55;1.20;;;1.20;;
10052;SDS011;52418;53.134;8.236;2022-08-19T11:19:22;1.10;;;1.10;;
10052;SDS011;52418;53.134;8.236;2022-08-19T11:21:48;1.05;;;1.05;;
10052;SDS011;52418;53.134;8.236;2022-08-19T11:24:15;1.02;;;1.02;;
10052;SDS011;52418;53.134;8.236;2022-08-19T11:26:41;1.10;;;1.10;;
10052;SDS011;52418;53.134;8.236;2022-08-19T11:29:08;1.10;;;1.10;;
10052;SDS011;52418;53.134;8.236;2022-08-19T11:31:38;1.20;;;1.20;;
10052;SDS011;52418;53.134;8.236;2022-08-19T11:34:05;1.10;;;1.10;;
10052;SDS011;52418;53.134;8.236;2022-08-19T11:36:31;1.20;;;1.20;;
10052;SDS011;52418;53.134;8.236;2022-08-19T11:38:57;1.20;;;1.20;;
10052;SDS011;52418;53.134;8.236;2022-08-19T11:41:23;1.20;;;1.20;;
10052;SDS011;52418;53.134;8.236;2022-08-19T11:43:49;1.20;;;1.20;;
10052;SDS011;52418;53.134;8.236;2022-08-19T11:46:16;1.15;;;1.15;;
10052;SDS011;52418;53.134;8.236;2022-08-19T11:48:41;1.10;;;1.10;;
10052;SDS011;52418;53.134;8.236;2022-08-19T11:51:11;1.20;;;1.20;;
10052;SDS011;52418;53.134;8.236;2022-08-19T11:53:37;1.10;;;1.10;;
10052;SDS011;52418;53.134;8.236;2022-08-19T11:56:03;1.20;;;1.20;;
10052;SDS011;52418;53.134;8.236;2022-08-19T11:58:28;1.20;;;1.20;;
10052;SDS011;52418;53.134;8.236;2022-08-19T12:00:54;1.10;;;1.10;;
10052;SDS011;52418;53.134;8.236;2022-08-19T12:03:19;1.20;;;1.20;;
10052;SDS011;52418;53.134;8.236;2022-08-19T12:05:45;1.20;;;1.20;;
10052;SDS011;52418;53.134;8.236;2022-08-19T12:08:10;1.20;;;1.20;;
10052;SDS011;52418;53.134;8.236;2022-08-19T12:10:37;1.10;;;1.10;;
10052;SDS011;52418;53.134;8.236;2022-08-19T12:13:02;1.30;;;1.30;;
10052;SDS011;52418;53.134;8.236;2022-08-19T12:15:28;1.30;;;1.30;;
10052;SDS011;52418;53.134;8.236;2022-08-19T12:17:54;1.17;;;1.17;;
10052;SDS011;52418;53.134;8.236;2022-08-19T12:20:21;1.20;;;1.20;;
10052;SDS011;52418;53.134;8.236;2022-08-19T12:22:47;1.17;;;1.17;;
10052;SDS011;52418;53.134;8.236;2022-08-19T12:25:13;1.10;;;1.10;;
10052;SDS011;52418;53.134;8.236;2022-08-19T12:27:39;1.02;;;1.02;;
10052;SDS011;52418;53.134;8.236;2022-08-19T12:30:06;1.10;;;1.10;;
10052;SDS011;52418;53.134;8.236;2022-08-19T12:32:31;1.10;;;1.10;;
10052;SDS011;52418;53.134;8.236;2022-08-19T12:34:57;1.10;;;1.10;;
10052;SDS011;52418;53.134;8.236;2022-08-19T12:37:22;1.10;;;1.10;;
10052;SDS011;52418;53.134;8.236;2022-08-19T12:39:47;1.10;;;1.10;;
10052;SDS011;52418;53.134;8.236;2022-08-19T12:42:13;1.13;;;1.13;;
10052;SDS011;52418;53.134;8.236;2022-08-19T12:44:39;1.23;;;1.23;;
10052;SDS011;52418;53.134;8.236;2022-08-19T12:47:04;1.30;;;1.30;;
10052;SDS011;52418;53.134;8.236;2022-08-19T12:49:30;1.20;;;1.20;;
10052;SDS011;52418;53.134;8.236;2022-08-19T12:51:58;1.20;;;1.20;;
10052;SDS011;52418;53.134;8.236;2022-08-19T12:54:23;1.10;;;1.10;;
10052;SDS011;52418;53.134;8.236;2022-08-19T12:56:48;1.27;;;1.27;;
10052;SDS011;52418;53.134;8.236;2022-08-19T12:59:13;1.20;;;1.20;;
10052;SDS011;52418;53.134;8.236;2022-08-19T13:01:41;1.13;;;1.13;;
10052;SDS011;52418;53.134;8.236;2022-08-19T13:04:06;1.20;;;1.20;;
10052;SDS011;52418;53.134;8.236;2022-08-19T13:06:32;1.10;;;1.10;;
10052;SDS011;52418;53.134;8.236;2022-08-19T13:08:57;1.10;;;1.10;;
10052;SDS011;52418;53.134;8.236;2022-08-19T13:11:22;1.20;;;1.20;;
10052;SDS011;52418;53.134;8.236;2022-08-19T13:13:49;1.10;;;1.10;;
10052;SDS011;52418;53.134;8.236;2022-08-19T13:16:16;1.10;;;1.10;;
10052;SDS011;52418;53.134;8.236;2022-08-19T13:18:41;1.17;;;1.17;;
10052;SDS011;52418;53.134;8.236;2022-08-19T13:21:09;1.15;;;1.15;;
10052;SDS011;52418;53.134;8.236;2022-08-19T13:23:36;1.08;;;1.08;;
10052;SDS011;52418;53.134;8.236;2022-08-19T13:26:02;1.02;;;1.02;;
10052;SDS011;52418;53.134;8.236;2022-08-19T13:28:28;1.20;;;1.20;;
10052;SDS011;52418;53.134;8.236;2022-08-19T13:31:17;1.10;;;1.10;;
10052;SDS011;52418;53.134;8.236;2022-08-19T13:34:01;1.10;;;1.10;;
10052;SDS011;52418;53.134;8.236;2022-08-19T13:36:26;1.10;;;1.10;;
10052;SDS011;52418;53.134;8.236;2022-08-19T13:38:51;1.10;;;1.10;;
10052;SDS011;52418;53.134;8.236;2022-08-19T13:41:16;1.20;;;1.20;;
10052;SDS011;52418;53.134;8.236;2022-08-19T13:43:43;1.10;;;1.10;;
10052;SDS011;52418;53.134;8.236;2022-08-19T13:46:09;1.10;;;1.10;;
10052;SDS011;52418;53.134;8.236;2022-08-19T13:48:34;1.20;;;1.20;;
10052;SDS011;52418;53.134;8.236;2022-08-19T13:50:59;1.10;;;1.10;;
10052;SDS011;52418;53.134;8.236;2022-08-19T13:53:24;1.10;;;1.10;;
10052;SDS011;52418;53.134;8.236;2022-08-19T13:55:50;1.08;;;1.08;;
10052;SDS011;52418;53.134;8.236;2022-08-19T13:58:16;1.00;;;1.00;;
10052;SDS011;52418;53.134;8.236;2022-08-19T14:00:42;1.20;;;1.20;;
10052;SDS011;52418;53.134;8.236;2022-08-19T14:03:08;1.10;;;1.10;;
10052;SDS011;52418;53.134;8.236;2022-08-19T14:05:34;1.10;;;1.10;;
10052;SDS011;52418;53.134;8.236;2022-08-19T14:07:59;1.10;;;1.10;;
10052;SDS011;52418;53.134;8.236;2022-08-19T14:10:25;1.10;;;1.10;;
10052;SDS011;52418;53.134;8.236;2022-08-19T14:12:57;1.20;;;1.20;;
10052;SDS011;52418;53.134;8.236;2022-08-19T14:15:23;1.10;;;1.10;;
10052;SDS011;52418;53.134;8.236;2022-08-19T14:17:49;1.13;;;1.13;;
10052;SDS011;52418;53.134;8.236;2022-08-19T14:20:14;1.10;;;1.10;;
10052;SDS011;52418;53.134;8.236;2022-08-19T14:22:40;1.23;;;1.23;;
10052;SDS011;52418;53.134;8.236;2022-08-19T14:25:10;1.10;;;1.10;;
10052;SDS011;52418;53.134;8.236;2022-08-19T14:27:37;1.20;;;1.20;;
10052;SDS011;52418;53.134;8.236;2022-08-19T14:30:03;1.17;;;1.17;;
10052;SDS011;52418;53.134;8.236;2022-08-19T14:32:29;1.10;;;1.10;;
10052;SDS011;52418;53.134;8.236;2022-08-19T14:34:54;1.13;;;1.13;;
10052;SDS011;52418;53.134;8.236;2022-08-19T14:37:20;1.10;;;1.10;;
10052;SDS011;52418;53.134;8.236;2022-08-19T14:39:46;1.20;;;1.20;;
10052;SDS011;52418;53.134;8.236;2022-08-19T14:42:11;1.20;;;1.20;;
10052;SDS011;52418;53.134;8.236;2022-08-19T14:44:39;1.05;;;1.05;;
10052;SDS011;52418;53.134;8.236;2022-08-19T14:47:04;1.20;;;1.20;;
10052;SDS011;52418;53.134;8.236;2022-08-19T14:49:29;1.10;;;1.10;;
10052;SDS011;52418;53.134;8.236;2022-08-19T14:51:55;1.13;;;1.13;;
10052;SDS011;52418;53.134;8.236;2022-08-19T14:54:21;1.10;;;1.10;;
10052;SDS011;52418;53.134;8.236;2022-08-19T14:56:46;1.10;;;1.10;;